EDHI/XFW METAR and TAF weather

Enter ICAO airport designator
Station Type Date Time Source
EDHI METAR 2019/02/23 17:50 UTC NOAA

EDHI 231750Z AUTO 13005KT 100V180 9999 // BKN190/// 05/M04 Q1039


Station Type Date Time Source
EDHI Decoded METAR 2019/02/23 17:50 UTC NOAA

Hamburg-Finkenwerder, Germany (EDHI) 53-32N 009-50E 13M
Feb 23, 2019 - 12:50 PM EST / 2019.02.23 1750 UTC
Wind: from the SE (130 degrees) at 6 MPH (5 KT) (direction variable):0
Visibility: greater than 7 mile(s):0
Sky conditions: mostly cloudy
Temperature: 41 F (5 C)
Dew Point: 24 F (-4 C)
Relative Humidity: 52%
Pressure (altimeter): 30.68 in. Hg (1039 hPa)
ob: EDHI 231750Z AUTO 13005KT 100V180 9999 // BKN190/// 05/M04 Q1039
cycle: 18

Station Type Date Time Source
EDHI TAF 2010/02/22 14:20 UTC NOAA

METAR EDHI 221420Z 17005KT 9999 BKN030 05/02 Q0989


Example: see airport list